createdAt,value
2024-01-27T00:02:00.322Z,72.57
2024-01-27T00:04:03.541Z,71.57
2024-01-27T00:06:05.402Z,70.84
2024-01-27T00:08:07.467Z,69.89
2024-01-27T00:10:09.410Z,70.18
2024-01-27T00:12:11.205Z,69.34
2024-01-27T00:14:12.822Z,68.72
2024-01-27T00:16:14.511Z,67.54
2024-01-27T00:18:17.831Z,67.82
2024-01-27T00:20:19.490Z,67.99
2024-01-27T00:22:22.216Z,67.86
2024-01-27T00:24:23.798Z,67.81
2024-01-27T00:26:25.387Z,67.52
2024-01-27T00:28:27.055Z,67.47
2024-01-27T00:30:28.782Z,67.17
2024-01-27T00:32:30.506Z,66.20
2024-01-27T00:34:32.526Z,66.25
2024-01-27T00:36:34.390Z,66.30
2024-01-27T00:38:36.080Z,65.34
2024-01-27T00:40:37.694Z,65.21
2024-01-27T00:42:39.253Z,65.49
2024-01-27T00:44:41.001Z,65.41
2024-01-27T00:46:42.580Z,65.11
2024-01-27T00:48:44.305Z,64.86
2024-01-27T00:50:45.997Z,64.44
2024-01-27T00:52:47.804Z,63.94
2024-01-27T00:54:49.778Z,63.43
2024-01-27T00:56:51.365Z,64.27
2024-01-27T00:58:53.110Z,63.66
2024-01-27T01:00:54.764Z,64.21
2024-01-27T01:02:56.361Z,64.01
2024-01-27T01:04:58.139Z,64.10
2024-01-27T01:07:00.588Z,64.82
2024-01-27T01:09:02.226Z,65.16
2024-01-27T01:11:04.022Z,65.33
2024-01-27T01:13:05.648Z,65.43
2024-01-27T01:15:07.963Z,65.58
2024-01-27T01:17:09.634Z,65.93
2024-01-27T01:19:11.287Z,66.16
2024-01-27T01:21:13.135Z,65.83
2024-01-27T01:23:15.974Z,65.34
2024-01-27T01:25:17.670Z,65.42
2024-01-27T01:27:20.484Z,65.82
2024-01-27T01:29:23.410Z,65.58
2024-01-27T01:31:25.157Z,65.28
2024-01-27T01:33:26.916Z,65.69
2024-01-27T01:35:28.691Z,65.37
2024-01-27T01:37:30.217Z,65.59
2024-01-27T01:39:31.940Z,65.72
2024-01-27T01:41:33.948Z,65.64
2024-01-27T01:43:35.611Z,65.70
2024-01-27T01:45:37.185Z,65.89
2024-01-27T01:47:38.976Z,66.35
2024-01-27T01:49:41.752Z,65.98
2024-01-27T01:51:43.539Z,66.17
2024-01-27T01:53:49.009Z,66.29
2024-01-27T01:55:51.453Z,66.07
2024-01-27T01:57:53.103Z,65.80
2024-01-27T01:59:54.908Z,65.69
2024-01-27T02:01:56.760Z,65.48
2024-01-27T02:03:58.857Z,65.40
2024-01-27T02:06:00.509Z,65.89
2024-01-27T02:08:05.426Z,65.06
2024-01-27T02:10:15.847Z,65.30
2024-01-27T02:12:17.631Z,65.10
2024-01-27T02:14:19.546Z,65.06
2024-01-27T02:16:21.415Z,65.28
2024-01-27T02:18:23.156Z,65.14
2024-01-27T02:20:24.880Z,65.13
2024-01-27T02:22:26.441Z,65.54
2024-01-27T02:24:29.928Z,65.82
2024-01-27T02:26:31.689Z,65.88
2024-01-27T02:28:34.589Z,65.92
2024-01-27T02:30:36.419Z,65.65
2024-01-27T02:32:38.175Z,65.48
2024-01-27T02:34:39.875Z,65.95
2024-01-27T02:36:41.710Z,65.50
2024-01-27T02:38:43.349Z,65.29
2024-01-27T02:40:44.884Z,64.92
2024-01-27T02:42:46.750Z,64.40
2024-01-27T02:44:48.419Z,64.33
2024-01-27T02:46:50.149Z,64.08
2024-01-27T02:48:52.084Z,63.84
2024-01-27T02:50:53.979Z,64.06
2024-01-27T02:52:55.537Z,63.80
2024-01-27T02:54:57.372Z,64.21
2024-01-27T02:56:59.147Z,64.53
2024-01-27T02:59:00.760Z,64.73
2024-01-27T03:01:02.350Z,64.83
2024-01-27T03:03:04.368Z,65.12
2024-01-27T03:05:06.377Z,65.18
2024-01-27T03:07:08.000Z,64.80
2024-01-27T03:09:09.645Z,65.18
2024-01-27T03:11:11.309Z,64.94
2024-01-27T03:13:12.885Z,64.46
2024-01-27T03:15:14.644Z,64.32
2024-01-27T03:17:16.988Z,64.14
2024-01-27T03:19:19.006Z,62.76
2024-01-27T03:21:20.756Z,60.95
2024-01-27T03:23:22.661Z,60.44
2024-01-27T03:25:26.952Z,60.08
2024-01-27T03:27:28.734Z,60.85
2024-01-27T03:29:30.507Z,60.94
2024-01-27T03:31:33.190Z,60.89
2024-01-27T03:33:35.053Z,60.62
2024-01-27T03:35:36.820Z,60.60
2024-01-27T03:37:38.560Z,60.54
2024-01-27T03:39:42.934Z,60.76
2024-01-27T03:41:44.701Z,60.17
2024-01-27T03:43:46.497Z,60.55
2024-01-27T03:45:48.307Z,60.21
2024-01-27T03:47:51.363Z,59.94
2024-01-27T03:49:53.454Z,60.22
2024-01-27T03:51:55.977Z,60.59
2024-01-27T03:53:57.826Z,60.52
2024-01-27T03:56:00.913Z,60.84
2024-01-27T03:58:02.830Z,60.64
2024-01-27T04:00:05.571Z,61.06
2024-01-27T04:02:07.200Z,61.17
2024-01-27T04:04:09.025Z,61.47
2024-01-27T04:06:11.042Z,61.38
2024-01-27T04:08:12.947Z,61.48
2024-01-27T04:10:14.558Z,61.38
2024-01-27T04:12:16.360Z,61.14
2024-01-27T04:14:18.105Z,61.46
2024-01-27T04:16:19.860Z,61.09
2024-01-27T04:18:21.651Z,60.74
2024-01-27T04:20:23.641Z,60.93
2024-01-27T04:22:25.325Z,60.95
2024-01-27T04:24:27.034Z,60.75
2024-01-27T04:26:29.046Z,60.85
2024-01-27T04:28:31.726Z,61.28
2024-01-27T04:30:33.483Z,60.72
2024-01-27T04:32:36.734Z,60.96
2024-01-27T04:34:38.622Z,60.77
2024-01-27T04:36:40.543Z,60.58
2024-01-27T04:38:45.007Z,60.85
2024-01-27T04:40:46.792Z,60.89
2024-01-27T04:42:48.424Z,60.79
2024-01-27T04:44:50.158Z,60.57
2024-01-27T04:46:51.857Z,60.64
2024-01-27T04:48:53.726Z,61.53
2024-01-27T04:50:55.572Z,62.29
2024-01-27T04:52:57.392Z,62.97
2024-01-27T04:54:59.658Z,63.89
2024-01-27T04:57:01.194Z,63.98
2024-01-27T04:59:02.731Z,64.98
2024-01-27T05:01:04.562Z,65.33
2024-01-27T05:03:08.772Z,65.64
2024-01-27T05:05:10.408Z,65.89
2024-01-27T05:07:12.207Z,66.33
2024-01-27T05:09:14.148Z,66.04
2024-01-27T05:11:18.810Z,66.50
2024-01-27T05:13:20.379Z,66.39
2024-01-27T05:15:22.044Z,66.61
2024-01-27T05:17:23.796Z,66.67
2024-01-27T05:19:25.588Z,66.84
2024-01-27T05:21:27.430Z,66.72
2024-01-27T05:23:29.171Z,66.88
2024-01-27T05:25:30.844Z,66.64
2024-01-27T05:27:32.637Z,67.08
2024-01-27T05:29:34.404Z,67.07
2024-01-27T05:31:36.677Z,67.02
2024-01-27T05:33:39.318Z,66.60
2024-01-27T05:35:41.141Z,66.75
2024-01-27T05:37:42.714Z,66.10
2024-01-27T05:39:44.635Z,66.19
2024-01-27T05:41:46.272Z,66.39
2024-01-27T05:43:47.962Z,65.95
2024-01-27T05:45:50.424Z,65.89
2024-01-27T05:47:52.133Z,65.85
2024-01-27T05:49:53.889Z,65.89
2024-01-27T05:51:55.699Z,65.36
2024-01-27T05:53:57.836Z,65.85
2024-01-27T05:55:59.611Z,65.73
2024-01-27T05:58:01.223Z,65.27
2024-01-27T06:00:02.970Z,65.30
2024-01-27T06:02:04.826Z,65.56
2024-01-27T06:04:06.574Z,65.16
2024-01-27T06:06:08.476Z,65.24
2024-01-27T06:08:10.657Z,65.27
2024-01-27T06:10:12.380Z,64.79
2024-01-27T06:12:14.009Z,64.34
2024-01-27T06:14:15.675Z,64.37
2024-01-27T06:16:20.361Z,64.71
2024-01-27T06:18:22.181Z,64.58
2024-01-27T06:20:24.060Z,64.60
2024-01-27T06:22:25.665Z,64.67
2024-01-27T06:24:27.283Z,64.78
2024-01-27T06:26:28.923Z,64.70
2024-01-27T06:28:30.443Z,64.01
2024-01-27T06:30:33.473Z,63.77
2024-01-27T06:32:35.159Z,63.78
2024-01-27T06:34:36.899Z,63.99
2024-01-27T06:36:38.851Z,63.87
2024-01-27T06:38:40.620Z,63.57
2024-01-27T06:40:42.500Z,63.92
2024-01-27T06:42:44.174Z,63.64
2024-01-27T06:44:45.752Z,63.26
2024-01-27T06:46:51.266Z,63.16
2024-01-27T06:48:53.122Z,63.12
2024-01-27T06:50:55.074Z,63.34
2024-01-27T06:52:56.752Z,62.45
2024-01-27T06:54:58.458Z,61.97
2024-01-27T06:57:04.148Z,61.54
2024-01-27T06:59:05.986Z,61.61
2024-01-27T07:01:10.645Z,61.71
2024-01-27T07:03:13.992Z,61.68
2024-01-27T07:05:16.406Z,61.67
2024-01-27T07:07:18.717Z,62.34
2024-01-27T07:09:21.093Z,62.49
2024-01-27T07:11:23.049Z,62.35
2024-01-27T07:13:24.580Z,62.92
2024-01-27T07:15:26.272Z,63.36
2024-01-27T07:17:28.772Z,63.63
2024-01-27T07:19:30.577Z,63.45
2024-01-27T07:21:32.893Z,63.51
2024-01-27T07:23:36.697Z,63.94
2024-01-27T07:25:38.507Z,63.93
2024-01-27T07:27:40.630Z,63.89
2024-01-27T07:29:42.416Z,63.74
2024-01-27T07:31:44.178Z,64.07
2024-01-27T07:33:45.999Z,64.08
2024-01-27T07:35:47.817Z,64.28
2024-01-27T07:37:49.534Z,64.14
2024-01-27T07:39:51.545Z,64.01
2024-01-27T07:41:53.371Z,63.73
2024-01-27T07:43:57.874Z,63.14
2024-01-27T07:45:59.629Z,63.02
2024-01-27T07:48:02.526Z,62.70
2024-01-27T07:50:04.604Z,62.44
2024-01-27T07:52:06.739Z,62.13
2024-01-27T07:54:08.978Z,62.19
2024-01-27T07:56:10.690Z,61.58
2024-01-27T07:58:12.410Z,61.03
2024-01-27T08:00:14.762Z,60.93
2024-01-27T08:02:16.342Z,61.04
2024-01-27T08:04:18.292Z,60.67
2024-01-27T08:06:28.763Z,60.32
2024-01-27T08:08:31.219Z,60.46
2024-01-27T08:10:32.977Z,60.13
2024-01-27T08:12:34.739Z,59.81
2024-01-27T08:14:36.925Z,59.35
2024-01-27T08:16:38.634Z,59.50
2024-01-27T08:18:41.193Z,59.16
2024-01-27T08:20:43.294Z,59.13
2024-01-27T08:22:44.976Z,58.85
2024-01-27T08:24:46.785Z,58.90
2024-01-27T08:26:49.603Z,58.78
2024-01-27T08:28:51.329Z,58.70
2024-01-27T08:30:53.096Z,58.42
2024-01-27T08:32:55.002Z,58.85
2024-01-27T08:34:57.713Z,58.77
2024-01-27T08:37:02.397Z,58.92
2024-01-27T08:39:04.516Z,59.03
2024-01-27T08:41:06.266Z,58.87
2024-01-27T08:43:07.947Z,58.88
2024-01-27T08:45:09.959Z,58.14
2024-01-27T08:47:11.741Z,58.13
2024-01-27T08:49:13.572Z,58.58
2024-01-27T08:51:17.421Z,58.08
2024-01-27T08:53:19.255Z,57.70
2024-01-27T08:55:20.980Z,58.03
2024-01-27T08:57:22.610Z,57.69
2024-01-27T08:59:24.347Z,57.98
2024-01-27T09:01:26.050Z,58.58
2024-01-27T09:03:27.863Z,58.33
2024-01-27T09:05:29.906Z,58.35
2024-01-27T09:07:31.750Z,59.00
2024-01-27T09:09:33.543Z,59.24
2024-01-27T09:11:36.138Z,59.27
2024-01-27T09:13:37.834Z,59.63
2024-01-27T09:15:39.818Z,59.99
2024-01-27T09:17:43.751Z,60.56
2024-01-27T09:19:45.401Z,60.41
2024-01-27T09:21:47.153Z,60.91
2024-01-27T09:23:48.743Z,61.00
2024-01-27T09:25:50.297Z,61.88
2024-01-27T09:27:51.993Z,62.66
2024-01-27T09:29:53.635Z,63.19
2024-01-27T09:31:55.261Z,63.80
2024-01-27T09:33:57.605Z,64.72
2024-01-27T09:35:59.361Z,65.35
2024-01-27T09:38:01.155Z,65.90
2024-01-27T09:40:04.161Z,66.58
2024-01-27T09:42:09.165Z,66.52
2024-01-27T09:44:13.598Z,67.22
2024-01-27T09:46:16.754Z,67.74
2024-01-27T09:48:19.114Z,68.00
2024-01-27T09:50:23.136Z,67.85
2024-01-27T09:52:25.653Z,68.56
2024-01-27T09:54:28.606Z,68.94
2024-01-27T09:56:32.008Z,69.82
2024-01-27T09:58:34.056Z,69.52
2024-01-27T10:00:38.092Z,69.59
2024-01-27T10:02:43.784Z,69.33
2024-01-27T10:04:49.686Z,70.03
2024-01-27T10:06:52.152Z,70.19
2024-01-27T10:08:56.213Z,70.36
2024-01-27T10:10:58.275Z,71.01
2024-01-27T10:13:05.011Z,70.80
2024-01-27T10:15:07.987Z,70.99
2024-01-27T10:17:13.468Z,71.47
2024-01-27T10:19:22.460Z,71.42
2024-01-27T10:21:25.816Z,71.58
2024-01-27T10:23:28.224Z,71.75
2024-01-27T10:25:29.937Z,72.05
2024-01-27T10:27:31.637Z,72.32
2024-01-27T10:29:33.949Z,72.90
2024-01-27T10:31:37.955Z,72.97
2024-01-27T10:33:41.269Z,73.08
2024-01-27T10:35:44.700Z,73.50
2024-01-27T10:37:46.241Z,73.34
2024-01-27T10:39:48.235Z,73.62
2024-01-27T10:41:51.043Z,73.58
2024-01-27T10:43:53.838Z,73.83
2024-01-27T10:45:57.603Z,73.68
2024-01-27T10:48:01.453Z,73.87
2024-01-27T10:50:03.938Z,74.30
2024-01-27T10:52:12.472Z,74.39
2024-01-27T10:54:19.391Z,74.29
2024-01-27T10:56:23.135Z,74.26
2024-01-27T10:58:25.988Z,74.31
2024-01-27T11:00:28.227Z,74.69
2024-01-27T11:02:34.035Z,74.28
2024-01-27T11:04:37.619Z,74.56
2024-01-27T11:06:40.150Z,74.60
2024-01-27T11:08:43.953Z,74.54
2024-01-27T11:10:47.159Z,74.36
2024-01-27T11:12:49.864Z,74.50
2024-01-27T11:14:54.245Z,74.28
2024-01-27T11:16:59.074Z,74.32
2024-01-27T11:19:01.101Z,74.81
2024-01-27T11:21:03.026Z,74.48
2024-01-27T11:23:12.065Z,74.20
2024-01-27T11:25:13.908Z,74.25
2024-01-27T11:27:15.846Z,74.02
2024-01-27T11:29:21.457Z,74.32
2024-01-27T11:31:23.293Z,74.35
2024-01-27T11:33:28.091Z,74.30
2024-01-27T11:35:30.216Z,74.67
2024-01-27T11:37:32.627Z,74.27
2024-01-27T11:39:34.401Z,74.59
2024-01-27T11:41:36.039Z,74.35
2024-01-27T11:43:37.653Z,74.67
2024-01-27T11:45:39.227Z,74.73
2024-01-27T11:47:41.830Z,74.74
2024-01-27T11:49:46.034Z,74.78
2024-01-27T11:51:47.945Z,75.24
2024-01-27T11:53:49.933Z,74.57
2024-01-27T11:56:01.644Z,74.43
2024-01-27T11:58:03.348Z,74.70
2024-01-27T12:00:05.967Z,74.53
2024-01-27T12:02:07.833Z,74.78
2024-01-27T12:04:10.694Z,74.81
2024-01-27T12:06:14.631Z,74.76
2024-01-27T12:08:18.379Z,75.40
2024-01-27T12:10:21.172Z,75.42
2024-01-27T12:12:22.853Z,75.44
2024-01-27T12:14:24.560Z,75.57
2024-01-27T12:16:26.310Z,75.68
2024-01-27T12:18:28.914Z,75.71
2024-01-27T12:20:31.055Z,76.19
2024-01-27T12:22:33.940Z,76.26
2024-01-27T12:24:35.628Z,76.03
2024-01-27T12:26:40.512Z,75.93
2024-01-27T12:28:42.349Z,76.07
2024-01-27T12:30:44.279Z,75.84
2024-01-27T12:32:45.963Z,76.15
2024-01-27T12:34:49.576Z,75.95
2024-01-27T12:36:53.179Z,75.82
2024-01-27T12:39:03.025Z,75.89
2024-01-27T12:41:04.788Z,76.07
2024-01-27T12:43:06.448Z,75.86
2024-01-27T12:45:08.958Z,75.84
2024-01-27T12:47:14.455Z,76.06
2024-01-27T12:49:16.116Z,76.00
2024-01-27T12:51:17.945Z,75.57
2024-01-27T12:53:19.558Z,75.87
2024-01-27T12:55:21.265Z,75.99
2024-01-27T12:57:22.894Z,76.08
2024-01-27T12:59:25.023Z,76.27
2024-01-27T13:01:26.582Z,75.86
2024-01-27T13:03:28.179Z,76.12
2024-01-27T13:05:31.097Z,76.07
2024-01-27T13:07:33.241Z,75.90
2024-01-27T13:09:36.169Z,75.85
2024-01-27T13:11:39.180Z,75.87
2024-01-27T13:13:45.567Z,75.84
2024-01-27T13:15:48.457Z,75.94
2024-01-27T13:17:50.637Z,76.19
2024-01-27T13:19:52.494Z,75.99
2024-01-27T13:21:54.229Z,75.75
2024-01-27T13:23:55.978Z,76.05
2024-01-27T13:26:08.647Z,76.00
2024-01-27T13:28:19.358Z,76.21
2024-01-27T13:30:21.205Z,76.02
2024-01-27T13:32:22.867Z,75.86
2024-01-27T13:34:24.656Z,76.24
2024-01-27T13:36:27.534Z,75.91
2024-01-27T13:38:29.257Z,76.25
2024-01-27T13:40:31.002Z,76.31
2024-01-27T13:42:32.804Z,76.08
2024-01-27T13:44:37.286Z,76.19
2024-01-27T13:46:39.431Z,76.04
2024-01-27T13:48:41.336Z,76.15
2024-01-27T13:50:43.298Z,76.45
2024-01-27T13:52:46.556Z,76.43
2024-01-27T13:54:48.225Z,76.72
2024-01-27T13:56:49.966Z,76.52
2024-01-27T13:58:52.854Z,76.37
2024-01-27T14:00:54.545Z,76.55
2024-01-27T14:02:56.484Z,76.33
2024-01-27T14:04:58.321Z,76.43
2024-01-27T14:07:04.424Z,76.32
2024-01-27T14:09:06.251Z,76.49
2024-01-27T14:11:08.189Z,76.45
2024-01-27T14:13:10.632Z,76.37
2024-01-27T14:15:13.420Z,76.45
2024-01-27T14:17:16.226Z,76.48
2024-01-27T14:19:18.028Z,76.61
2024-01-27T14:21:19.725Z,76.08
2024-01-27T14:23:21.524Z,76.41
2024-01-27T14:25:23.044Z,76.25
2024-01-27T14:27:27.640Z,76.14
2024-01-27T14:29:29.664Z,76.07
2024-01-27T14:31:32.044Z,76.19
2024-01-27T14:33:34.732Z,76.08
2024-01-27T14:35:36.408Z,76.34
2024-01-27T14:37:39.186Z,75.99
2024-01-27T14:39:46.071Z,75.98
2024-01-27T14:41:47.655Z,75.68
2024-01-27T14:43:50.968Z,75.59
2024-01-27T14:45:52.599Z,75.75
2024-01-27T14:47:57.806Z,75.80
2024-01-27T14:50:01.413Z,75.66
2024-01-27T14:52:03.143Z,75.65
2024-01-27T14:54:05.259Z,75.59
2024-01-27T14:56:07.180Z,75.78
2024-01-27T14:58:08.825Z,75.65
2024-01-27T15:00:11.464Z,75.46
2024-01-27T15:02:13.154Z,75.53
2024-01-27T15:04:15.507Z,75.56
2024-01-27T15:06:17.630Z,75.41
2024-01-27T15:08:20.366Z,75.34
2024-01-27T15:10:24.660Z,75.65
2024-01-27T15:12:26.985Z,75.50
2024-01-27T15:14:29.810Z,75.63
2024-01-27T15:16:33.586Z,75.69
2024-01-27T15:18:38.212Z,75.67
2024-01-27T15:20:40.000Z,75.75
2024-01-27T15:22:42.607Z,75.65
2024-01-27T15:24:44.268Z,75.65
2024-01-27T15:26:46.132Z,76.07
2024-01-27T15:28:48.671Z,75.96
2024-01-27T15:30:50.829Z,75.76
2024-01-27T15:32:52.681Z,76.15
2024-01-27T15:34:54.762Z,76.16
2024-01-27T15:36:56.719Z,76.03
2024-01-27T15:38:58.488Z,76.01
2024-01-27T15:41:00.537Z,76.17
2024-01-27T15:43:02.381Z,76.06
2024-01-27T15:45:05.908Z,76.24
2024-01-27T15:47:08.495Z,76.15
2024-01-27T15:49:10.082Z,76.15
2024-01-27T15:51:12.203Z,76.08
2024-01-27T15:53:13.932Z,76.42
2024-01-27T15:55:16.190Z,76.13
2024-01-27T15:57:18.151Z,76.23
2024-01-27T15:59:19.792Z,76.15
2024-01-27T16:01:21.473Z,76.07
2024-01-27T16:03:24.512Z,75.99
2024-01-27T16:05:26.319Z,76.30
2024-01-27T16:07:27.842Z,76.43
2024-01-27T16:09:32.400Z,76.40
2024-01-27T16:11:34.337Z,76.39
2024-01-27T16:13:37.437Z,76.24
2024-01-27T16:15:39.435Z,76.44
2024-01-27T16:17:41.098Z,76.71
2024-01-27T16:19:42.956Z,76.75
2024-01-27T16:21:44.811Z,76.57
2024-01-27T16:23:46.486Z,76.64
2024-01-27T16:25:48.161Z,76.67
2024-01-27T16:27:50.166Z,76.95
2024-01-27T16:29:52.483Z,76.86
2024-01-27T16:31:54.330Z,77.16
2024-01-27T16:33:56.173Z,77.09
2024-01-27T16:35:57.892Z,76.93
2024-01-27T16:37:59.637Z,76.96
2024-01-27T16:40:01.350Z,77.10
2024-01-27T16:42:03.827Z,76.92
2024-01-27T16:44:05.533Z,76.99
2024-01-27T16:46:09.873Z,76.86
2024-01-27T16:48:11.542Z,77.25
2024-01-27T16:50:13.504Z,77.48
2024-01-27T16:52:15.068Z,77.67
2024-01-27T16:54:16.957Z,77.39
2024-01-27T16:56:18.901Z,77.59
2024-01-27T16:58:20.489Z,77.43
2024-01-27T17:00:24.499Z,77.45
2024-01-27T17:02:26.390Z,77.25
2024-01-27T17:04:28.196Z,77.63
2024-01-27T17:06:29.790Z,77.30
2024-01-27T17:08:31.655Z,77.31
2024-01-27T17:10:33.301Z,77.46
2024-01-27T17:12:35.116Z,77.33
2024-01-27T17:14:36.823Z,77.21
2024-01-27T17:16:38.608Z,77.13
2024-01-27T17:18:40.199Z,77.20
2024-01-27T17:20:44.126Z,77.13
2024-01-27T17:22:47.110Z,77.02
2024-01-27T17:24:48.920Z,76.99
2024-01-27T17:26:50.618Z,76.99
2024-01-27T17:28:52.228Z,77.06
2024-01-27T17:30:53.784Z,77.21
2024-01-27T17:32:55.427Z,77.17
2024-01-27T17:34:57.359Z,77.14
2024-01-27T17:36:59.599Z,77.17
2024-01-27T17:39:01.168Z,77.15
2024-01-27T17:41:02.848Z,77.02
2024-01-27T17:43:04.568Z,77.00
2024-01-27T17:45:08.062Z,77.05
2024-01-27T17:47:09.814Z,77.27
2024-01-27T17:49:11.804Z,77.16
2024-01-27T17:51:13.865Z,76.93
2024-01-27T17:53:16.986Z,77.26
2024-01-27T17:55:18.805Z,77.17
2024-01-27T17:57:20.404Z,77.20
2024-01-27T17:59:25.151Z,77.22
2024-01-27T18:01:26.800Z,76.94
2024-01-27T18:03:28.731Z,77.08
2024-01-27T18:05:30.707Z,77.22
2024-01-27T18:07:32.613Z,77.22
2024-01-27T18:09:34.255Z,76.79
2024-01-27T18:11:35.884Z,76.79
2024-01-27T18:13:37.645Z,76.94
2024-01-27T18:15:39.593Z,76.87
2024-01-27T18:17:41.329Z,76.83
2024-01-27T18:19:43.045Z,76.88
2024-01-27T18:21:45.078Z,76.61
2024-01-27T18:23:47.236Z,76.75
2024-01-27T18:25:48.906Z,76.67
2024-01-27T18:27:50.649Z,76.45
2024-01-27T18:29:53.924Z,76.50
2024-01-27T18:31:55.841Z,76.35
2024-01-27T18:33:57.687Z,76.06
2024-01-27T18:35:59.937Z,76.30
2024-01-27T18:38:01.680Z,76.19
2024-01-27T18:40:05.946Z,75.61
2024-01-27T18:42:07.755Z,76.03
2024-01-27T18:44:10.822Z,75.63
2024-01-27T18:46:13.706Z,75.33
2024-01-27T18:48:15.607Z,75.79
2024-01-27T18:50:17.634Z,75.81
2024-01-27T18:52:19.262Z,75.59
2024-01-27T18:54:22.302Z,75.80
2024-01-27T18:56:23.913Z,75.65
2024-01-27T18:58:25.590Z,75.30
2024-01-27T19:00:27.667Z,75.29
2024-01-27T19:02:29.286Z,74.89
2024-01-27T19:04:31.065Z,74.87
2024-01-27T19:06:33.139Z,74.90
2024-01-27T19:08:35.566Z,74.59
2024-01-27T19:10:37.221Z,74.64
2024-01-27T19:12:38.918Z,74.81
2024-01-27T19:14:41.451Z,74.70
2024-01-27T19:16:43.547Z,74.96
2024-01-27T19:18:45.177Z,74.51
2024-01-27T19:20:46.801Z,74.34
2024-01-27T19:22:51.445Z,74.58
2024-01-27T19:24:53.189Z,74.69
2024-01-27T19:26:54.792Z,74.79
2024-01-27T19:28:56.634Z,74.21
2024-01-27T19:30:58.713Z,74.23
2024-01-27T19:33:00.715Z,74.09
2024-01-27T19:35:03.411Z,73.66
2024-01-27T19:37:05.083Z,73.61
2024-01-27T19:39:06.709Z,73.43
2024-01-27T19:41:16.161Z,73.38
2024-01-27T19:43:20.882Z,73.13
2024-01-27T19:45:22.694Z,73.25
2024-01-27T19:47:24.492Z,72.62
2024-01-27T19:49:26.142Z,72.66
2024-01-27T19:51:27.859Z,72.49
2024-01-27T19:53:29.741Z,72.51
2024-01-27T19:55:31.393Z,72.44
2024-01-27T19:57:33.090Z,72.41
2024-01-27T19:59:34.802Z,72.23
2024-01-27T20:01:36.614Z,71.75
2024-01-27T20:03:38.381Z,71.99
2024-01-27T20:05:40.280Z,71.81
2024-01-27T20:07:41.928Z,71.31
2024-01-27T20:09:43.492Z,71.30
2024-01-27T20:11:47.427Z,71.55
2024-01-27T20:13:49.049Z,71.15
2024-01-27T20:15:50.783Z,70.75
2024-01-27T20:17:52.878Z,71.16
2024-01-27T20:19:56.324Z,71.27
2024-01-27T20:21:58.616Z,70.84
2024-01-27T20:24:00.226Z,70.81
2024-01-27T20:26:01.924Z,70.62
2024-01-27T20:28:03.981Z,70.79
2024-01-27T20:30:07.627Z,70.52
2024-01-27T20:32:09.652Z,70.51
2024-01-27T20:34:12.355Z,70.53
2024-01-27T20:36:14.454Z,70.32
2024-01-27T20:38:16.137Z,69.76
2024-01-27T20:40:18.270Z,69.80
2024-01-27T20:42:19.913Z,69.81
2024-01-27T20:44:21.548Z,69.85
2024-01-27T20:46:23.161Z,69.78
2024-01-27T20:48:24.942Z,69.78
2024-01-27T20:50:27.020Z,69.36
2024-01-27T20:52:28.887Z,69.31
2024-01-27T20:54:30.553Z,69.04
2024-01-27T20:56:33.805Z,69.02
2024-01-27T20:58:38.223Z,68.93
2024-01-27T21:00:40.043Z,69.11
2024-01-27T21:02:42.743Z,68.83
2024-01-27T21:04:44.991Z,68.83
2024-01-27T21:06:46.992Z,68.86
2024-01-27T21:08:48.924Z,68.98
2024-01-27T21:10:50.571Z,68.95
2024-01-27T21:12:52.381Z,68.60
2024-01-27T21:14:54.095Z,68.20
2024-01-27T21:16:55.775Z,68.20
2024-01-27T21:18:57.457Z,68.47
2024-01-27T21:21:00.297Z,67.81
2024-01-27T21:23:03.391Z,67.91
2024-01-27T21:25:05.617Z,68.12
2024-01-27T21:27:07.294Z,68.09
2024-01-27T21:29:09.667Z,68.13
2024-01-27T21:31:11.726Z,68.23
2024-01-27T21:33:13.549Z,68.17
2024-01-27T21:35:15.559Z,67.84
2024-01-27T21:37:17.295Z,67.53
2024-01-27T21:39:19.051Z,67.01
2024-01-27T21:41:20.775Z,67.37
2024-01-27T21:43:22.288Z,67.49
2024-01-27T21:45:24.001Z,67.56
2024-01-27T21:47:25.840Z,67.89
2024-01-27T21:49:27.430Z,67.90
2024-01-27T21:51:29.096Z,67.79
2024-01-27T21:53:30.695Z,68.03
2024-01-27T21:55:33.811Z,67.70
2024-01-27T21:57:35.510Z,67.92
2024-01-27T21:59:37.257Z,67.91
2024-01-27T22:01:42.122Z,68.03
2024-01-27T22:03:44.532Z,67.85
2024-01-27T22:05:46.381Z,67.79
2024-01-27T22:07:50.326Z,67.87
2024-01-27T22:09:53.135Z,67.47
2024-01-27T22:11:55.719Z,67.59
2024-01-27T22:13:59.340Z,67.39
2024-01-27T22:16:02.680Z,67.14
2024-01-27T22:18:05.014Z,67.05
2024-01-27T22:20:08.803Z,66.82
2024-01-27T22:22:10.448Z,66.87
2024-01-27T22:24:12.039Z,66.37
2024-01-27T22:26:13.886Z,66.33
2024-01-27T22:28:16.868Z,66.45
2024-01-27T22:30:18.598Z,65.99
2024-01-27T22:32:20.327Z,65.97
2024-01-27T22:34:22.691Z,66.06
2024-01-27T22:36:24.575Z,66.39
2024-01-27T22:38:26.331Z,66.63
2024-01-27T22:40:28.062Z,66.36
2024-01-27T22:42:32.072Z,66.32
2024-01-27T22:44:33.775Z,66.68
2024-01-27T22:46:35.890Z,66.73
2024-01-27T22:48:37.655Z,67.10
2024-01-27T22:50:39.419Z,67.03
2024-01-27T22:52:41.200Z,67.07
2024-01-27T22:54:43.358Z,67.04
2024-01-27T22:56:44.971Z,67.14
2024-01-27T22:58:46.521Z,67.30
2024-01-27T23:00:48.471Z,67.36
2024-01-27T23:02:50.255Z,67.65
2024-01-27T23:04:51.857Z,67.43
2024-01-27T23:06:53.847Z,67.82
2024-01-27T23:08:55.596Z,67.38
2024-01-27T23:10:57.255Z,67.40
2024-01-27T23:12:59.957Z,67.56
2024-01-27T23:15:01.645Z,67.34
2024-01-27T23:17:03.225Z,67.59
2024-01-27T23:19:05.300Z,67.60
2024-01-27T23:21:07.307Z,67.95
2024-01-27T23:23:09.007Z,67.78
2024-01-27T23:25:10.780Z,67.90
2024-01-27T23:27:12.474Z,67.95
2024-01-27T23:29:14.196Z,67.95
2024-01-27T23:31:15.940Z,67.76
2024-01-27T23:33:19.522Z,67.98
2024-01-27T23:35:23.591Z,68.17
2024-01-27T23:37:25.495Z,68.05
2024-01-27T23:39:27.163Z,68.44
2024-01-27T23:41:28.781Z,68.15
2024-01-27T23:43:30.467Z,68.38
2024-01-27T23:45:32.526Z,68.20
2024-01-27T23:47:34.899Z,68.27
2024-01-27T23:49:37.042Z,68.28
2024-01-27T23:51:40.063Z,68.31
2024-01-27T23:53:42.097Z,68.26
2024-01-27T23:55:44.873Z,68.40
2024-01-27T23:57:51.117Z,68.39
2024-01-27T23:59:52.990Z,68.49
